sensor_id;sensor_type;location;lat;lon;timestamp;P1;durP1;ratioP1;P2;durP2;ratioP2
74908;SDS011;63468;52.058;4.824;2023-11-21T00:00:37;9.77;;;7.00;;
74908;SDS011;63468;52.058;4.824;2023-11-21T00:03:03;10.82;;;7.80;;
74908;SDS011;63468;52.058;4.824;2023-11-21T00:05:29;13.88;;;8.30;;
74908;SDS011;63468;52.058;4.824;2023-11-21T00:07:54;10.60;;;8.02;;
74908;SDS011;63468;52.058;4.824;2023-11-21T00:10:19;9.75;;;7.68;;
74908;SDS011;63468;52.058;4.824;2023-11-21T00:12:45;11.13;;;7.20;;
74908;SDS011;63468;52.058;4.824;2023-11-21T00:15:13;9.93;;;7.82;;
74908;SDS011;63468;52.058;4.824;2023-11-21T00:17:38;12.43;;;8.13;;
74908;SDS011;63468;52.058;4.824;2023-11-21T00:20:07;10.63;;;8.65;;
74908;SDS011;63468;52.058;4.824;2023-11-21T00:22:34;11.55;;;7.85;;
74908;SDS011;63468;52.058;4.824;2023-11-21T00:24:59;10.63;;;8.32;;
74908;SDS011;63468;52.058;4.824;2023-11-21T00:27:25;13.35;;;8.45;;
74908;SDS011;63468;52.058;4.824;2023-11-21T00:29:50;14.27;;;8.40;;
74908;SDS011;63468;52.058;4.824;2023-11-21T00:32:16;13.57;;;8.98;;
74908;SDS011;63468;52.058;4.824;2023-11-21T00:34:41;13.90;;;9.07;;
74908;SDS011;63468;52.058;4.824;2023-11-21T00:37:07;10.73;;;8.30;;
74908;SDS011;63468;52.058;4.824;2023-11-21T00:39:32;12.18;;;9.00;;
74908;SDS011;63468;52.058;4.824;2023-11-21T00:41:58;13.30;;;9.40;;
74908;SDS011;63468;52.058;4.824;2023-11-21T00:44:23;17.27;;;10.88;;
74908;SDS011;63468;52.058;4.824;2023-11-21T00:46:49;11.93;;;9.25;;
74908;SDS011;63468;52.058;4.824;2023-11-21T00:49:15;12.20;;;9.90;;
74908;SDS011;63468;52.058;4.824;2023-11-21T00:51:40;12.32;;;9.55;;
74908;SDS011;63468;52.058;4.824;2023-11-21T00:54:06;11.80;;;9.65;;
74908;SDS011;63468;52.058;4.824;2023-11-21T00:56:31;12.48;;;10.85;;
74908;SDS011;63468;52.058;4.824;2023-11-21T00:58:57;14.05;;;10.90;;
74908;SDS011;63468;52.058;4.824;2023-11-21T01:01:22;13.90;;;11.65;;
74908;SDS011;63468;52.058;4.824;2023-11-21T01:03:48;17.75;;;11.65;;
74908;SDS011;63468;52.058;4.824;2023-11-21T01:06:14;13.45;;;11.45;;
74908;SDS011;63468;52.058;4.824;2023-11-21T01:08:40;15.75;;;11.77;;
74908;SDS011;63468;52.058;4.824;2023-11-21T01:11:05;18.45;;;12.48;;
74908;SDS011;63468;52.058;4.824;2023-11-21T01:13:33;18.05;;;12.68;;
74908;SDS011;63468;52.058;4.824;2023-11-21T01:15:58;18.30;;;12.75;;
74908;SDS011;63468;52.058;4.824;2023-11-21T01:18:24;17.95;;;12.95;;
74908;SDS011;63468;52.058;4.824;2023-11-21T01:20:50;18.10;;;13.63;;
74908;SDS011;63468;52.058;4.824;2023-11-21T01:23:17;18.35;;;14.00;;
74908;SDS011;63468;52.058;4.824;2023-11-21T01:25:43;19.88;;;13.50;;
74908;SDS011;63468;52.058;4.824;2023-11-21T01:28:08;17.40;;;13.88;;
74908;SDS011;63468;52.058;4.824;2023-11-21T01:30:33;20.63;;;13.45;;
74908;SDS011;63468;52.058;4.824;2023-11-21T01:33:00;19.88;;;13.00;;
74908;SDS011;63468;52.058;4.824;2023-11-21T01:35:25;17.70;;;14.65;;
74908;SDS011;63468;52.058;4.824;2023-11-21T01:37:51;18.90;;;13.85;;
74908;SDS011;63468;52.058;4.824;2023-11-21T01:40:16;19.30;;;13.88;;
74908;SDS011;63468;52.058;4.824;2023-11-21T01:42:42;17.85;;;13.77;;
74908;SDS011;63468;52.058;4.824;2023-11-21T01:45:08;22.60;;;14.55;;
74908;SDS011;63468;52.058;4.824;2023-11-21T01:47:35;18.63;;;14.35;;
74908;SDS011;63468;52.058;4.824;2023-11-21T01:50:01;22.05;;;15.27;;
74908;SDS011;63468;52.058;4.824;2023-11-21T01:52:29;21.30;;;15.77;;
74908;SDS011;63468;52.058;4.824;2023-11-21T01:54:54;20.63;;;15.95;;
74908;SDS011;63468;52.058;4.824;2023-11-21T01:57:20;19.95;;;14.85;;
74908;SDS011;63468;52.058;4.824;2023-11-21T01:59:45;22.75;;;15.85;;
74908;SDS011;63468;52.058;4.824;2023-11-21T02:02:13;20.77;;;14.25;;
74908;SDS011;63468;52.058;4.824;2023-11-21T02:04:39;18.95;;;14.98;;
74908;SDS011;63468;52.058;4.824;2023-11-21T02:07:04;21.30;;;14.95;;
74908;SDS011;63468;52.058;4.824;2023-11-21T02:09:33;20.45;;;15.50;;
74908;SDS011;63468;52.058;4.824;2023-11-21T02:11:59;22.63;;;15.38;;
74908;SDS011;63468;52.058;4.824;2023-11-21T02:14:25;19.85;;;15.20;;
74908;SDS011;63468;52.058;4.824;2023-11-21T02:16:51;19.73;;;14.75;;
74908;SDS011;63468;52.058;4.824;2023-11-21T02:19:17;19.50;;;15.25;;
74908;SDS011;63468;52.058;4.824;2023-11-21T02:21:45;22.58;;;16.55;;
74908;SDS011;63468;52.058;4.824;2023-11-21T02:24:10;20.17;;;15.50;;
74908;SDS011;63468;52.058;4.824;2023-11-21T02:26:36;20.58;;;15.00;;
74908;SDS011;63468;52.058;4.824;2023-11-21T02:29:01;22.23;;;16.10;;
74908;SDS011;63468;52.058;4.824;2023-11-21T02:31:29;25.45;;;16.50;;
74908;SDS011;63468;52.058;4.824;2023-11-21T02:33:55;21.77;;;16.17;;
74908;SDS011;63468;52.058;4.824;2023-11-21T02:36:20;22.65;;;15.80;;
74908;SDS011;63468;52.058;4.824;2023-11-21T02:38:46;22.95;;;16.70;;
74908;SDS011;63468;52.058;4.824;2023-11-21T02:41:12;21.67;;;16.13;;
74908;SDS011;63468;52.058;4.824;2023-11-21T02:43:38;23.05;;;16.52;;
74908;SDS011;63468;52.058;4.824;2023-11-21T02:46:03;21.60;;;15.57;;
74908;SDS011;63468;52.058;4.824;2023-11-21T02:48:29;21.42;;;16.73;;
74908;SDS011;63468;52.058;4.824;2023-11-21T02:50:55;23.80;;;16.38;;
74908;SDS011;63468;52.058;4.824;2023-11-21T02:53:21;28.38;;;17.10;;
74908;SDS011;63468;52.058;4.824;2023-11-21T02:55:46;28.08;;;17.52;;
74908;SDS011;63468;52.058;4.824;2023-11-21T02:58:11;23.52;;;16.48;;
74908;SDS011;63468;52.058;4.824;2023-11-21T03:00:37;28.38;;;17.63;;
74908;SDS011;63468;52.058;4.824;2023-11-21T03:03:02;23.88;;;17.38;;
74908;SDS011;63468;52.058;4.824;2023-11-21T03:05:29;20.48;;;16.70;;
74908;SDS011;63468;52.058;4.824;2023-11-21T03:07:54;23.83;;;18.63;;
74908;SDS011;63468;52.058;4.824;2023-11-21T03:10:20;21.13;;;18.30;;
74908;SDS011;63468;52.058;4.824;2023-11-21T03:12:45;25.60;;;18.90;;
74908;SDS011;63468;52.058;4.824;2023-11-21T03:15:11;25.52;;;19.38;;
74908;SDS011;63468;52.058;4.824;2023-11-21T03:17:36;21.48;;;17.85;;
74908;SDS011;63468;52.058;4.824;2023-11-21T03:20:01;21.90;;;17.15;;
74908;SDS011;63468;52.058;4.824;2023-11-21T03:22:28;24.60;;;18.95;;
74908;SDS011;63468;52.058;4.824;2023-11-21T03:24:54;24.52;;;18.42;;
74908;SDS011;63468;52.058;4.824;2023-11-21T03:27:19;26.45;;;18.90;;
74908;SDS011;63468;52.058;4.824;2023-11-21T03:29:44;24.50;;;18.00;;
74908;SDS011;63468;52.058;4.824;2023-11-21T03:32:11;22.83;;;18.80;;
74908;SDS011;63468;52.058;4.824;2023-11-21T03:34:52;24.98;;;19.00;;
74908;SDS011;63468;52.058;4.824;2023-11-21T03:37:18;22.25;;;18.58;;
74908;SDS011;63468;52.058;4.824;2023-11-21T03:39:45;25.48;;;17.70;;
74908;SDS011;63468;52.058;4.824;2023-11-21T03:42:11;21.90;;;17.20;;
74908;SDS011;63468;52.058;4.824;2023-11-21T03:44:36;20.30;;;18.17;;
74908;SDS011;63468;52.058;4.824;2023-11-21T03:47:01;23.08;;;17.92;;
74908;SDS011;63468;52.058;4.824;2023-11-21T03:49:27;18.65;;;16.75;;
74908;SDS011;63468;52.058;4.824;2023-11-21T03:51:54;24.48;;;18.38;;
74908;SDS011;63468;52.058;4.824;2023-11-21T03:54:19;22.27;;;18.17;;
74908;SDS011;63468;52.058;4.824;2023-11-21T03:56:45;22.35;;;18.50;;
74908;SDS011;63468;52.058;4.824;2023-11-21T03:59:10;20.45;;;18.25;;
74908;SDS011;63468;52.058;4.824;2023-11-21T04:01:36;21.20;;;18.95;;
74908;SDS011;63468;52.058;4.824;2023-11-21T04:04:02;29.23;;;19.00;;
74908;SDS011;63468;52.058;4.824;2023-11-21T04:06:27;27.63;;;18.58;;
74908;SDS011;63468;52.058;4.824;2023-11-21T04:08:52;21.25;;;18.20;;
74908;SDS011;63468;52.058;4.824;2023-11-21T04:11:18;26.38;;;19.73;;
74908;SDS011;63468;52.058;4.824;2023-11-21T04:13:43;26.70;;;19.05;;
74908;SDS011;63468;52.058;4.824;2023-11-21T04:16:09;24.80;;;19.90;;
74908;SDS011;63468;52.058;4.824;2023-11-21T04:18:37;28.85;;;19.77;;
74908;SDS011;63468;52.058;4.824;2023-11-21T04:21:06;26.85;;;17.95;;
74908;SDS011;63468;52.058;4.824;2023-11-21T04:23:32;22.02;;;17.27;;
74908;SDS011;63468;52.058;4.824;2023-11-21T04:25:58;29.00;;;19.48;;
74908;SDS011;63468;52.058;4.824;2023-11-21T04:28:24;23.80;;;18.73;;
74908;SDS011;63468;52.058;4.824;2023-11-21T04:30:49;22.35;;;19.98;;
74908;SDS011;63468;52.058;4.824;2023-11-21T04:33:15;26.92;;;21.65;;
74908;SDS011;63468;52.058;4.824;2023-11-21T04:35:41;27.98;;;22.83;;
74908;SDS011;63468;52.058;4.824;2023-11-21T04:38:06;29.20;;;22.88;;
74908;SDS011;63468;52.058;4.824;2023-11-21T04:40:31;34.20;;;31.13;;
74908;SDS011;63468;52.058;4.824;2023-11-21T04:42:57;33.67;;;30.15;;
74908;SDS011;63468;52.058;4.824;2023-11-21T04:45:22;34.75;;;31.52;;
74908;SDS011;63468;52.058;4.824;2023-11-21T04:47:47;36.83;;;33.13;;
74908;SDS011;63468;52.058;4.824;2023-11-21T04:50:13;36.35;;;33.05;;
74908;SDS011;63468;52.058;4.824;2023-11-21T04:52:38;35.65;;;32.63;;
74908;SDS011;63468;52.058;4.824;2023-11-21T04:55:04;37.05;;;34.08;;
74908;SDS011;63468;52.058;4.824;2023-11-21T04:57:31;38.17;;;34.58;;
74908;SDS011;63468;52.058;4.824;2023-11-21T04:59:57;36.15;;;33.25;;
74908;SDS011;63468;52.058;4.824;2023-11-21T05:02:22;37.00;;;33.80;;
74908;SDS011;63468;52.058;4.824;2023-11-21T05:04:47;37.42;;;34.45;;
74908;SDS011;63468;52.058;4.824;2023-11-21T05:07:13;36.28;;;33.30;;
74908;SDS011;63468;52.058;4.824;2023-11-21T05:09:42;38.15;;;34.78;;
74908;SDS011;63468;52.058;4.824;2023-11-21T05:12:09;37.28;;;34.35;;
74908;SDS011;63468;52.058;4.824;2023-11-21T05:14:35;37.13;;;34.22;;
74908;SDS011;63468;52.058;4.824;2023-11-21T05:17:00;37.30;;;34.20;;
74908;SDS011;63468;52.058;4.824;2023-11-21T05:19:26;38.17;;;35.17;;
74908;SDS011;63468;52.058;4.824;2023-11-21T05:21:52;37.50;;;34.25;;
74908;SDS011;63468;52.058;4.824;2023-11-21T05:24:17;36.90;;;34.17;;
74908;SDS011;63468;52.058;4.824;2023-11-21T05:26:42;37.10;;;34.10;;
74908;SDS011;63468;52.058;4.824;2023-11-21T05:29:08;36.88;;;33.85;;
74908;SDS011;63468;52.058;4.824;2023-11-21T05:31:35;36.85;;;33.58;;
74908;SDS011;63468;52.058;4.824;2023-11-21T05:34:00;36.28;;;33.28;;
74908;SDS011;63468;52.058;4.824;2023-11-21T05:36:25;37.35;;;34.28;;
74908;SDS011;63468;52.058;4.824;2023-11-21T05:38:50;35.15;;;32.45;;
74908;SDS011;63468;52.058;4.824;2023-11-21T05:41:16;36.83;;;33.50;;
74908;SDS011;63468;52.058;4.824;2023-11-21T05:43:41;36.03;;;32.17;;
74908;SDS011;63468;52.058;4.824;2023-11-21T05:46:07;37.15;;;33.88;;
74908;SDS011;63468;52.058;4.824;2023-11-21T05:48:33;35.95;;;33.10;;
74908;SDS011;63468;52.058;4.824;2023-11-21T05:51:02;36.97;;;33.67;;
74908;SDS011;63468;52.058;4.824;2023-11-21T05:53:29;36.42;;;33.42;;
74908;SDS011;63468;52.058;4.824;2023-11-21T05:55:54;35.22;;;32.10;;
74908;SDS011;63468;52.058;4.824;2023-11-21T05:58:20;37.13;;;33.60;;
74908;SDS011;63468;52.058;4.824;2023-11-21T06:00:45;39.25;;;35.42;;
74908;SDS011;63468;52.058;4.824;2023-11-21T06:03:10;37.35;;;33.72;;
74908;SDS011;63468;52.058;4.824;2023-11-21T06:05:36;37.40;;;34.17;;
74908;SDS011;63468;52.058;4.824;2023-11-21T06:08:02;35.88;;;32.95;;
74908;SDS011;63468;52.058;4.824;2023-11-21T06:10:28;38.55;;;34.85;;
74908;SDS011;63468;52.058;4.824;2023-11-21T06:12:53;38.38;;;34.83;;
74908;SDS011;63468;52.058;4.824;2023-11-21T06:15:18;38.88;;;35.10;;
74908;SDS011;63468;52.058;4.824;2023-11-21T06:17:48;40.25;;;36.13;;
74908;SDS011;63468;52.058;4.824;2023-11-21T06:20:19;38.22;;;34.80;;
74908;SDS011;63468;52.058;4.824;2023-11-21T06:22:46;38.55;;;34.95;;
74908;SDS011;63468;52.058;4.824;2023-11-21T06:25:12;39.53;;;35.90;;
74908;SDS011;63468;52.058;4.824;2023-11-21T06:27:42;39.72;;;36.42;;
74908;SDS011;63468;52.058;4.824;2023-11-21T06:30:15;40.03;;;36.63;;
74908;SDS011;63468;52.058;4.824;2023-11-21T06:32:41;39.08;;;35.88;;
74908;SDS011;63468;52.058;4.824;2023-11-21T06:35:10;37.95;;;34.72;;
74908;SDS011;63468;52.058;4.824;2023-11-21T06:37:36;37.28;;;34.13;;
74908;SDS011;63468;52.058;4.824;2023-11-21T06:40:01;37.58;;;34.30;;
74908;SDS011;63468;52.058;4.824;2023-11-21T06:42:29;38.47;;;35.10;;
74908;SDS011;63468;52.058;4.824;2023-11-21T06:44:54;37.13;;;34.00;;
74908;SDS011;63468;52.058;4.824;2023-11-21T06:47:22;39.25;;;35.22;;
74908;SDS011;63468;52.058;4.824;2023-11-21T06:49:50;38.13;;;35.17;;
74908;SDS011;63468;52.058;4.824;2023-11-21T06:52:15;38.08;;;35.05;;
74908;SDS011;63468;52.058;4.824;2023-11-21T06:54:41;38.15;;;34.38;;
74908;SDS011;63468;52.058;4.824;2023-11-21T06:57:06;36.63;;;33.67;;
74908;SDS011;63468;52.058;4.824;2023-11-21T06:59:32;38.10;;;34.90;;
74908;SDS011;63468;52.058;4.824;2023-11-21T07:01:57;37.90;;;34.95;;
74908;SDS011;63468;52.058;4.824;2023-11-21T07:04:23;38.28;;;35.08;;
74908;SDS011;63468;52.058;4.824;2023-11-21T07:06:50;35.58;;;32.78;;
74908;SDS011;63468;52.058;4.824;2023-11-21T07:09:16;38.38;;;35.20;;
74908;SDS011;63468;52.058;4.824;2023-11-21T07:11:41;39.50;;;36.25;;
74908;SDS011;63468;52.058;4.824;2023-11-21T07:14:07;38.17;;;34.95;;
74908;SDS011;63468;52.058;4.824;2023-11-21T07:16:36;35.58;;;32.50;;
74908;SDS011;63468;52.058;4.824;2023-11-21T07:19:05;38.47;;;35.35;;
74908;SDS011;63468;52.058;4.824;2023-11-21T07:21:34;36.50;;;33.13;;
74908;SDS011;63468;52.058;4.824;2023-11-21T07:24:01;34.97;;;32.38;;
74908;SDS011;63468;52.058;4.824;2023-11-21T07:26:30;35.95;;;32.75;;
74908;SDS011;63468;52.058;4.824;2023-11-21T07:28:55;34.70;;;32.08;;
74908;SDS011;63468;52.058;4.824;2023-11-21T07:31:21;37.25;;;33.67;;
74908;SDS011;63468;52.058;4.824;2023-11-21T07:33:47;35.47;;;32.83;;
74908;SDS011;63468;52.058;4.824;2023-11-21T07:36:12;36.00;;;33.03;;
74908;SDS011;63468;52.058;4.824;2023-11-21T07:38:41;35.20;;;32.55;;
74908;SDS011;63468;52.058;4.824;2023-11-21T07:41:07;36.45;;;33.67;;
74908;SDS011;63468;52.058;4.824;2023-11-21T07:43:35;35.00;;;31.98;;
74908;SDS011;63468;52.058;4.824;2023-11-21T07:46:01;32.80;;;30.05;;
74908;SDS011;63468;52.058;4.824;2023-11-21T07:48:28;36.22;;;33.30;;
74908;SDS011;63468;52.058;4.824;2023-11-21T07:50:54;38.53;;;35.17;;
74908;SDS011;63468;52.058;4.824;2023-11-21T07:53:19;35.97;;;33.05;;
74908;SDS011;63468;52.058;4.824;2023-11-21T07:55:45;37.05;;;33.95;;
74908;SDS011;63468;52.058;4.824;2023-11-21T07:58:15;36.33;;;33.30;;
74908;SDS011;63468;52.058;4.824;2023-11-21T08:00:40;37.28;;;34.08;;
74908;SDS011;63468;52.058;4.824;2023-11-21T08:03:05;37.38;;;34.25;;
74908;SDS011;63468;52.058;4.824;2023-11-21T08:05:31;35.90;;;32.88;;
74908;SDS011;63468;52.058;4.824;2023-11-21T08:07:56;38.35;;;34.97;;
74908;SDS011;63468;52.058;4.824;2023-11-21T08:10:22;36.90;;;33.78;;
74908;SDS011;63468;52.058;4.824;2023-11-21T08:12:47;37.58;;;34.78;;
74908;SDS011;63468;52.058;4.824;2023-11-21T08:15:13;36.13;;;33.30;;
74908;SDS011;63468;52.058;4.824;2023-11-21T08:17:39;38.53;;;35.42;;
74908;SDS011;63468;52.058;4.824;2023-11-21T08:20:04;38.80;;;35.67;;
74908;SDS011;63468;52.058;4.824;2023-11-21T08:22:32;39.92;;;36.72;;
74908;SDS011;63468;52.058;4.824;2023-11-21T08:24:57;38.22;;;35.03;;
74908;SDS011;63468;52.058;4.824;2023-11-21T08:27:23;40.05;;;36.30;;
74908;SDS011;63468;52.058;4.824;2023-11-21T08:29:48;42.60;;;38.92;;
74908;SDS011;63468;52.058;4.824;2023-11-21T08:32:13;42.20;;;38.33;;
74908;SDS011;63468;52.058;4.824;2023-11-21T08:34:39;43.22;;;39.63;;
74908;SDS011;63468;52.058;4.824;2023-11-21T08:37:05;42.97;;;38.75;;
74908;SDS011;63468;52.058;4.824;2023-11-21T08:39:30;40.20;;;37.22;;
74908;SDS011;63468;52.058;4.824;2023-11-21T08:41:57;42.30;;;38.60;;
74908;SDS011;63468;52.058;4.824;2023-11-21T08:44:22;39.40;;;36.30;;
74908;SDS011;63468;52.058;4.824;2023-11-21T08:46:48;40.42;;;36.90;;
74908;SDS011;63468;52.058;4.824;2023-11-21T08:49:14;39.53;;;36.13;;
74908;SDS011;63468;52.058;4.824;2023-11-21T08:51:40;37.92;;;34.75;;
74908;SDS011;63468;52.058;4.824;2023-11-21T08:54:05;38.15;;;34.83;;
74908;SDS011;63468;52.058;4.824;2023-11-21T08:56:33;37.25;;;34.22;;
74908;SDS011;63468;52.058;4.824;2023-11-21T08:58:59;39.90;;;36.05;;
74908;SDS011;63468;52.058;4.824;2023-11-21T09:01:27;40.22;;;36.70;;
74908;SDS011;63468;52.058;4.824;2023-11-21T09:03:52;35.72;;;32.92;;
74908;SDS011;63468;52.058;4.824;2023-11-21T09:06:18;38.00;;;34.97;;
74908;SDS011;63468;52.058;4.824;2023-11-21T09:08:44;35.33;;;32.40;;
74908;SDS011;63468;52.058;4.824;2023-11-21T09:11:09;36.03;;;33.53;;
74908;SDS011;63468;52.058;4.824;2023-11-21T09:13:34;37.75;;;34.95;;
74908;SDS011;63468;52.058;4.824;2023-11-21T09:16:00;35.97;;;32.97;;
74908;SDS011;63468;52.058;4.824;2023-11-21T09:18:25;34.40;;;31.80;;
74908;SDS011;63468;52.058;4.824;2023-11-21T09:20:51;34.20;;;31.65;;
74908;SDS011;63468;52.058;4.824;2023-11-21T09:23:16;34.42;;;31.73;;
74908;SDS011;63468;52.058;4.824;2023-11-21T09:25:41;32.40;;;30.00;;
74908;SDS011;63468;52.058;4.824;2023-11-21T09:28:11;30.15;;;27.90;;
74908;SDS011;63468;52.058;4.824;2023-11-21T09:30:36;31.20;;;28.77;;
74908;SDS011;63468;52.058;4.824;2023-11-21T09:33:02;30.58;;;28.48;;
74908;SDS011;63468;52.058;4.824;2023-11-21T09:35:30;33.15;;;30.52;;
74908;SDS011;63468;52.058;4.824;2023-11-21T09:37:55;31.95;;;29.65;;
74908;SDS011;63468;52.058;4.824;2023-11-21T09:40:21;32.45;;;29.92;;
74908;SDS011;63468;52.058;4.824;2023-11-21T09:42:56;31.25;;;28.95;;
74908;SDS011;63468;52.058;4.824;2023-11-21T09:47:52;33.45;;;30.83;;
74908;SDS011;63468;52.058;4.824;2023-11-21T09:50:18;32.70;;;30.10;;
74908;SDS011;63468;52.058;4.824;2023-11-21T09:55:31;31.90;;;29.50;;
74908;SDS011;63468;52.058;4.824;2023-11-21T09:58:01;29.63;;;27.63;;
74908;SDS011;63468;52.058;4.824;2023-11-21T10:00:27;31.50;;;29.05;;
74908;SDS011;63468;52.058;4.824;2023-11-21T10:02:55;30.42;;;28.33;;
74908;SDS011;63468;52.058;4.824;2023-11-21T10:05:23;28.48;;;26.48;;
74908;SDS011;63468;52.058;4.824;2023-11-21T10:07:49;29.63;;;27.42;;
74908;SDS011;63468;52.058;4.824;2023-11-21T10:10:15;28.60;;;26.50;;
74908;SDS011;63468;52.058;4.824;2023-11-21T10:12:44;29.90;;;27.80;;
74908;SDS011;63468;52.058;4.824;2023-11-21T10:15:14;28.42;;;26.45;;
74908;SDS011;63468;52.058;4.824;2023-11-21T10:17:41;27.65;;;25.75;;
74908;SDS011;63468;52.058;4.824;2023-11-21T10:20:13;26.67;;;24.75;;
74908;SDS011;63468;52.058;4.824;2023-11-21T10:22:42;25.65;;;23.85;;
74908;SDS011;63468;52.058;4.824;2023-11-21T10:25:11;26.08;;;24.15;;
74908;SDS011;63468;52.058;4.824;2023-11-21T10:27:39;29.27;;;26.90;;
74908;SDS011;63468;52.058;4.824;2023-11-21T10:30:06;28.42;;;26.25;;
74908;SDS011;63468;52.058;4.824;2023-11-21T10:32:33;30.13;;;27.73;;
74908;SDS011;63468;52.058;4.824;2023-11-21T10:34:58;29.15;;;26.92;;
74908;SDS011;63468;52.058;4.824;2023-11-21T10:37:34;28.73;;;26.30;;
74908;SDS011;63468;52.058;4.824;2023-11-21T10:40:00;27.10;;;24.83;;
74908;SDS011;63468;52.058;4.824;2023-11-21T10:42:25;29.33;;;27.08;;
74908;SDS011;63468;52.058;4.824;2023-11-21T10:44:52;28.52;;;26.15;;
74908;SDS011;63468;52.058;4.824;2023-11-21T10:47:17;30.58;;;28.10;;
74908;SDS011;63468;52.058;4.824;2023-11-21T10:49:44;29.77;;;27.40;;
74908;SDS011;63468;52.058;4.824;2023-11-21T10:52:12;29.73;;;27.27;;
74908;SDS011;63468;52.058;4.824;2023-11-21T10:54:42;31.35;;;28.65;;
74908;SDS011;63468;52.058;4.824;2023-11-21T10:57:11;30.52;;;28.02;;
74908;SDS011;63468;52.058;4.824;2023-11-21T10:59:40;31.55;;;28.58;;
74908;SDS011;63468;52.058;4.824;2023-11-21T11:02:26;31.52;;;28.92;;
74908;SDS011;63468;52.058;4.824;2023-11-21T11:04:53;31.42;;;28.75;;
74908;SDS011;63468;52.058;4.824;2023-11-21T11:07:20;31.10;;;28.60;;
74908;SDS011;63468;52.058;4.824;2023-11-21T11:09:47;31.67;;;29.02;;
74908;SDS011;63468;52.058;4.824;2023-11-21T11:12:13;31.73;;;29.17;;
74908;SDS011;63468;52.058;4.824;2023-11-21T11:14:40;34.08;;;31.05;;
74908;SDS011;63468;52.058;4.824;2023-11-21T11:17:07;33.50;;;30.85;;
74908;SDS011;63468;52.058;4.824;2023-11-21T11:19:33;33.70;;;30.77;;
74908;SDS011;63468;52.058;4.824;2023-11-21T11:22:07;33.25;;;30.48;;
74908;SDS011;63468;52.058;4.824;2023-11-21T11:28:00;33.33;;;30.25;;
74908;SDS011;63468;52.058;4.824;2023-11-21T11:36:18;34.45;;;31.23;;
74908;SDS011;63468;52.058;4.824;2023-11-21T11:38:52;31.83;;;28.75;;
74908;SDS011;63468;52.058;4.824;2023-11-21T11:41:29;31.95;;;29.30;;
74908;SDS011;63468;52.058;4.824;2023-11-21T11:44:02;30.70;;;28.33;;
74908;SDS011;63468;52.058;4.824;2023-11-21T11:46:43;31.17;;;28.63;;
74908;SDS011;63468;52.058;4.824;2023-11-21T11:49:24;32.03;;;29.08;;
74908;SDS011;63468;52.058;4.824;2023-11-21T11:55:00;33.80;;;31.05;;
74908;SDS011;63468;52.058;4.824;2023-11-21T11:57:29;33.63;;;30.50;;
74908;SDS011;63468;52.058;4.824;2023-11-21T12:02:39;31.95;;;29.27;;
74908;SDS011;63468;52.058;4.824;2023-11-21T12:05:09;32.45;;;29.48;;
74908;SDS011;63468;52.058;4.824;2023-11-21T12:07:57;29.65;;;27.00;;
74908;SDS011;63468;52.058;4.824;2023-11-21T12:10:24;30.70;;;28.40;;
74908;SDS011;63468;52.058;4.824;2023-11-21T12:12:50;29.77;;;27.40;;
74908;SDS011;63468;52.058;4.824;2023-11-21T12:15:20;31.20;;;28.50;;
74908;SDS011;63468;52.058;4.824;2023-11-21T12:17:46;32.88;;;30.13;;
74908;SDS011;63468;52.058;4.824;2023-11-21T12:20:12;32.30;;;29.45;;
74908;SDS011;63468;52.058;4.824;2023-11-21T12:22:52;30.40;;;27.85;;
74908;SDS011;63468;52.058;4.824;2023-11-21T12:25:24;31.38;;;28.35;;
74908;SDS011;63468;52.058;4.824;2023-11-21T12:27:58;32.15;;;29.08;;
74908;SDS011;63468;52.058;4.824;2023-11-21T12:30:25;32.15;;;29.30;;
74908;SDS011;63468;52.058;4.824;2023-11-21T12:32:53;30.45;;;28.02;;
74908;SDS011;63468;52.058;4.824;2023-11-21T12:35:21;32.15;;;29.50;;
74908;SDS011;63468;52.058;4.824;2023-11-21T12:37:50;36.00;;;32.60;;
74908;SDS011;63468;52.058;4.824;2023-11-21T12:40:17;34.45;;;31.40;;
74908;SDS011;63468;52.058;4.824;2023-11-21T12:42:47;33.40;;;30.13;;
74908;SDS011;63468;52.058;4.824;2023-11-21T12:47:51;32.03;;;29.20;;
74908;SDS011;63468;52.058;4.824;2023-11-21T12:50:22;30.40;;;27.58;;
74908;SDS011;63468;52.058;4.824;2023-11-21T12:52:53;31.25;;;28.70;;
74908;SDS011;63468;52.058;4.824;2023-11-21T12:55:20;31.50;;;28.63;;
74908;SDS011;63468;52.058;4.824;2023-11-21T12:57:50;32.17;;;29.48;;
74908;SDS011;63468;52.058;4.824;2023-11-21T13:00:20;30.50;;;27.90;;
74908;SDS011;63468;52.058;4.824;2023-11-21T13:02:56;32.33;;;29.60;;
74908;SDS011;63468;52.058;4.824;2023-11-21T13:05:33;31.85;;;29.05;;
74908;SDS011;63468;52.058;4.824;2023-11-21T13:08:01;31.85;;;28.98;;
74908;SDS011;63468;52.058;4.824;2023-11-21T13:10:28;33.50;;;30.50;;
74908;SDS011;63468;52.058;4.824;2023-11-21T13:13:01;33.80;;;30.75;;
74908;SDS011;63468;52.058;4.824;2023-11-21T13:15:30;32.53;;;29.63;;
74908;SDS011;63468;52.058;4.824;2023-11-21T13:18:00;31.10;;;27.98;;
74908;SDS011;63468;52.058;4.824;2023-11-21T13:20:25;34.33;;;31.00;;
74908;SDS011;63468;52.058;4.824;2023-11-21T13:22:52;32.33;;;29.13;;
74908;SDS011;63468;52.058;4.824;2023-11-21T13:25:26;32.65;;;29.63;;
74908;SDS011;63468;52.058;4.824;2023-11-21T13:30:21;32.97;;;29.73;;
74908;SDS011;63468;52.058;4.824;2023-11-21T13:32:48;34.15;;;31.00;;
74908;SDS011;63468;52.058;4.824;2023-11-21T13:35:19;32.47;;;29.38;;
74908;SDS011;63468;52.058;4.824;2023-11-21T13:37:55;34.45;;;30.83;;
74908;SDS011;63468;52.058;4.824;2023-11-21T13:40:22;30.70;;;28.00;;
74908;SDS011;63468;52.058;4.824;2023-11-21T13:42:52;34.85;;;31.27;;
74908;SDS011;63468;52.058;4.824;2023-11-21T13:45:22;31.90;;;28.90;;
74908;SDS011;63468;52.058;4.824;2023-11-21T13:47:48;31.95;;;28.70;;
74908;SDS011;63468;52.058;4.824;2023-11-21T13:50:16;33.85;;;30.52;;
74908;SDS011;63468;52.058;4.824;2023-11-21T13:52:47;33.60;;;30.20;;
74908;SDS011;63468;52.058;4.824;2023-11-21T13:55:12;34.47;;;31.13;;
74908;SDS011;63468;52.058;4.824;2023-11-21T13:57:41;30.35;;;27.48;;
74908;SDS011;63468;52.058;4.824;2023-11-21T14:00:10;30.67;;;27.77;;
74908;SDS011;63468;52.058;4.824;2023-11-21T14:02:56;32.35;;;29.35;;
74908;SDS011;63468;52.058;4.824;2023-11-21T14:05:25;34.05;;;30.50;;
74908;SDS011;63468;52.058;4.824;2023-11-21T14:07:54;31.65;;;28.52;;
74908;SDS011;63468;52.058;4.824;2023-11-21T14:10:21;29.48;;;26.77;;
74908;SDS011;63468;52.058;4.824;2023-11-21T14:12:49;28.60;;;26.08;;
74908;SDS011;63468;52.058;4.824;2023-11-21T14:15:15;32.78;;;27.08;;
74908;SDS011;63468;52.058;4.824;2023-11-21T14:17:43;30.17;;;27.30;;
74908;SDS011;63468;52.058;4.824;2023-11-21T14:20:09;32.35;;;29.15;;
74908;SDS011;63468;52.058;4.824;2023-11-21T14:22:41;28.63;;;25.80;;
74908;SDS011;63468;52.058;4.824;2023-11-21T14:25:08;27.33;;;24.75;;
74908;SDS011;63468;52.058;4.824;2023-11-21T14:27:36;30.17;;;27.20;;
74908;SDS011;63468;52.058;4.824;2023-11-21T14:30:01;31.35;;;27.77;;
74908;SDS011;63468;52.058;4.824;2023-11-21T14:32:27;26.55;;;23.92;;
74908;SDS011;63468;52.058;4.824;2023-11-21T14:34:52;29.63;;;26.63;;
74908;SDS011;63468;52.058;4.824;2023-11-21T14:37:17;29.63;;;26.38;;
74908;SDS011;63468;52.058;4.824;2023-11-21T14:39:44;27.83;;;24.90;;
74908;SDS011;63468;52.058;4.824;2023-11-21T14:42:13;29.58;;;26.58;;
74908;SDS011;63468;52.058;4.824;2023-11-21T14:44:40;28.88;;;25.95;;
74908;SDS011;63468;52.058;4.824;2023-11-21T14:47:06;28.50;;;25.48;;